createdAt,value
2023-09-28T00:01:56.674Z,71.90
2023-09-28T00:05:00.468Z,72.08
2023-09-28T00:08:06.592Z,72.25
2023-09-28T00:11:10.736Z,72.44
2023-09-28T00:14:14.521Z,72.43
2023-09-28T00:17:18.425Z,72.56
2023-09-28T00:20:24.372Z,72.54
2023-09-28T00:23:29.829Z,72.65
2023-09-28T00:26:33.802Z,72.58
2023-09-28T00:29:37.480Z,73.07
2023-09-28T00:32:42.877Z,72.88
2023-09-28T00:35:45.737Z,72.78
2023-09-28T00:38:52.134Z,72.98
2023-09-28T00:41:54.942Z,72.96
2023-09-28T00:45:00.638Z,73.21
2023-09-28T00:48:07.987Z,72.80
2023-09-28T00:51:10.643Z,72.93
2023-09-28T00:54:16.164Z,73.17
2023-09-28T00:57:19.239Z,73.26
2023-09-28T01:00:25.381Z,73.16
2023-09-28T01:03:28.579Z,73.53
2023-09-28T01:06:33.390Z,73.41
2023-09-28T01:09:39.478Z,73.26
2023-09-28T01:12:42.424Z,73.42
2023-09-28T01:15:48.898Z,73.30
2023-09-28T01:18:52.741Z,73.43
2023-09-28T01:21:57.748Z,73.62
2023-09-28T01:25:04.809Z,73.62
2023-09-28T01:28:08.417Z,73.45
2023-09-28T01:31:12.399Z,73.52
2023-09-28T01:34:15.247Z,74.09
2023-09-28T01:37:21.478Z,74.01
2023-09-28T01:40:25.776Z,73.70
2023-09-28T01:43:29.530Z,74.03
2023-09-28T01:46:32.296Z,73.82
2023-09-28T01:49:36.762Z,73.63
2023-09-28T01:52:39.520Z,73.42
2023-09-28T01:55:44.848Z,74.13
2023-09-28T01:58:50.770Z,73.69
2023-09-28T02:01:54.620Z,74.06
2023-09-28T02:04:58.973Z,74.21
2023-09-28T02:08:03.542Z,74.55
2023-09-28T02:11:08.736Z,74.52
2023-09-28T02:14:12.625Z,74.35
2023-09-28T02:17:15.531Z,74.62
2023-09-28T02:20:23.754Z,74.52
2023-09-28T02:23:27.591Z,74.35
2023-09-28T02:26:32.684Z,74.82
2023-09-28T02:29:35.608Z,74.60
2023-09-28T02:32:41.232Z,74.56
2023-09-28T02:35:45.263Z,74.45
2023-09-28T02:38:50.400Z,74.90
2023-09-28T02:41:56.909Z,74.75
2023-09-28T02:45:00.933Z,75.04
2023-09-28T02:48:05.707Z,74.50
2023-09-28T02:51:11.792Z,74.05
2023-09-28T02:54:14.801Z,74.27
2023-09-28T02:57:20.564Z,75.04
2023-09-28T03:00:25.957Z,74.27
2023-09-28T03:03:31.871Z,74.95
2023-09-28T03:06:38.502Z,75.13
2023-09-28T03:09:42.648Z,74.99
2023-09-28T03:12:48.697Z,75.38
2023-09-28T03:15:51.816Z,74.65
2023-09-28T03:18:58.330Z,75.27
2023-09-28T03:22:02.757Z,74.35
2023-09-28T03:25:11.488Z,74.91
2023-09-28T03:28:16.719Z,75.00
2023-09-28T03:31:20.885Z,74.86
2023-09-28T03:34:26.050Z,75.65
2023-09-28T03:37:30.002Z,75.53
2023-09-28T03:40:35.535Z,75.33
2023-09-28T03:43:40.732Z,75.05
2023-09-28T03:46:44.451Z,75.55
2023-09-28T03:49:48.201Z,75.72
2023-09-28T03:52:52.189Z,75.18
2023-09-28T03:55:56.358Z,74.97
2023-09-28T03:59:01.546Z,75.83
2023-09-28T04:02:06.005Z,75.54
2023-09-28T04:05:10.822Z,75.07
2023-09-28T04:08:14.641Z,75.63
2023-09-28T04:11:18.767Z,75.96
2023-09-28T04:14:23.919Z,76.13
2023-09-28T04:17:28.039Z,75.68
2023-09-28T04:20:32.042Z,75.29
2023-09-28T04:23:35.831Z,75.43
2023-09-28T04:26:39.728Z,76.29
2023-09-28T04:29:46.180Z,75.46
2023-09-28T04:32:52.105Z,75.97
2023-09-28T04:35:56.873Z,75.47
2023-09-28T04:39:00.743Z,75.76
2023-09-28T04:42:05.416Z,75.60
2023-09-28T04:45:13.172Z,75.61
2023-09-28T04:48:16.994Z,76.32
2023-09-28T04:51:20.673Z,76.21
2023-09-28T04:54:24.436Z,76.34
2023-09-28T04:57:28.809Z,76.01
2023-09-28T05:00:34.033Z,75.63
2023-09-28T05:03:38.172Z,76.18
2023-09-28T05:06:42.239Z,75.45
2023-09-28T05:09:46.308Z,75.52
2023-09-28T05:12:50.028Z,76.25
2023-09-28T05:15:55.349Z,76.33
2023-09-28T05:19:00.027Z,76.07
2023-09-28T05:22:06.684Z,75.68
2023-09-28T05:25:10.620Z,75.70
2023-09-28T05:28:14.460Z,75.30
2023-09-28T05:31:21.007Z,75.99
2023-09-28T05:34:25.647Z,75.94
2023-09-28T05:37:29.498Z,75.25
2023-09-28T05:40:33.692Z,75.68
2023-09-28T05:43:37.706Z,75.81
2023-09-28T05:46:42.821Z,75.65
2023-09-28T05:49:46.728Z,75.41
2023-09-28T05:52:53.449Z,75.48
2023-09-28T05:55:57.214Z,75.30
2023-09-28T05:59:00.888Z,75.56
2023-09-28T06:02:06.047Z,74.82
2023-09-28T06:05:11.221Z,75.16
2023-09-28T06:08:15.015Z,75.05
2023-09-28T06:11:20.008Z,75.09
2023-09-28T06:14:23.929Z,74.79
2023-09-28T06:17:29.175Z,74.92
2023-09-28T06:20:37.959Z,74.85
2023-09-28T06:23:43.728Z,74.67
2023-09-28T06:26:47.722Z,74.42
2023-09-28T06:29:54.510Z,74.40
2023-09-28T06:33:00.348Z,74.40
2023-09-28T06:36:05.204Z,73.94
2023-09-28T06:39:10.368Z,74.55
2023-09-28T06:42:30.989Z,73.84
2023-09-28T06:45:38.962Z,74.09
2023-09-28T06:48:44.265Z,73.82
2023-09-28T06:51:49.703Z,73.73
2023-09-28T06:54:53.672Z,73.41
2023-09-28T06:57:57.538Z,73.46
2023-09-28T07:01:01.406Z,73.63
2023-09-28T07:04:07.960Z,73.38
2023-09-28T07:07:14.841Z,72.91
2023-09-28T07:10:18.963Z,73.28
2023-09-28T07:13:22.737Z,73.06
2023-09-28T07:16:26.637Z,72.42
2023-09-28T07:19:32.052Z,72.73
2023-09-28T07:22:35.738Z,72.40
2023-09-28T07:25:41.502Z,72.03
2023-09-28T07:28:45.753Z,72.17
2023-09-28T07:31:49.904Z,72.01
2023-09-28T07:34:55.162Z,71.85
2023-09-28T07:37:59.052Z,71.88
2023-09-28T07:41:04.709Z,71.64
2023-09-28T07:44:08.732Z,70.96
2023-09-28T07:47:12.822Z,70.89
2023-09-28T07:50:18.712Z,70.86
2023-09-28T07:53:22.516Z,70.46
2023-09-28T07:56:26.592Z,70.38
2023-09-28T07:59:30.453Z,69.61
2023-09-28T08:02:34.626Z,69.58
2023-09-28T08:05:40.326Z,69.57
2023-09-28T08:08:44.224Z,68.84
2023-09-28T08:11:49.811Z,68.15
2023-09-28T08:14:53.933Z,67.77
2023-09-28T08:17:58.444Z,67.04
2023-09-28T08:21:10.565Z,66.63
2023-09-28T08:24:15.098Z,66.08
2023-09-28T08:27:18.881Z,65.34
2023-09-28T08:30:22.633Z,64.93
2023-09-28T08:33:26.500Z,64.73
2023-09-28T08:36:32.145Z,64.56
2023-09-28T08:39:38.247Z,64.10
2023-09-28T08:42:47.131Z,63.69
2023-09-28T08:45:54.616Z,63.10
2023-09-28T08:49:03.561Z,62.51
2023-09-28T08:52:09.313Z,62.38
2023-09-28T08:55:14.271Z,62.36
2023-09-28T08:58:19.345Z,62.15
2023-09-28T09:01:23.394Z,61.79
2023-09-28T09:04:27.534Z,61.20
2023-09-28T09:07:33.506Z,60.86
2023-09-28T09:10:39.075Z,60.78
2023-09-28T09:13:52.073Z,60.23
2023-09-28T09:16:57.379Z,60.30
2023-09-28T09:20:01.132Z,59.67
2023-09-28T09:23:15.175Z,59.46
2023-09-28T09:26:19.659Z,58.72
2023-09-28T09:29:23.711Z,58.35
2023-09-28T09:32:29.155Z,57.91
2023-09-28T09:35:32.921Z,57.32
2023-09-28T09:38:38.080Z,57.01
2023-09-28T09:41:48.124Z,55.87
2023-09-28T09:44:54.032Z,55.50
2023-09-28T09:47:58.983Z,55.85
2023-09-28T09:51:04.041Z,55.41
2023-09-28T09:54:12.796Z,54.30
2023-09-28T09:57:18.719Z,54.45
2023-09-28T10:00:25.160Z,53.36
2023-09-28T10:03:30.525Z,52.70
2023-09-28T10:06:34.853Z,52.14
2023-09-28T10:09:40.213Z,51.33
2023-09-28T10:12:44.750Z,51.20
2023-09-28T10:15:49.582Z,50.96
2023-09-28T10:18:55.684Z,50.50
2023-09-28T10:22:01.415Z,49.97
2023-09-28T10:25:07.821Z,49.29
2023-09-28T10:28:12.421Z,49.05
2023-09-28T10:31:18.567Z,48.80
2023-09-28T10:34:23.804Z,48.72
2023-09-28T10:37:28.420Z,48.35
2023-09-28T10:40:48.393Z,47.62
2023-09-28T10:43:58.447Z,47.55
2023-09-28T10:47:02.662Z,47.29
2023-09-28T10:50:09.793Z,46.72
2023-09-28T10:53:14.256Z,46.51
2023-09-28T10:56:19.960Z,45.21
2023-09-28T10:59:25.396Z,45.71
2023-09-28T11:02:32.990Z,45.50
2023-09-28T11:05:38.659Z,45.48
2023-09-28T11:08:44.690Z,45.01
2023-09-28T11:11:50.974Z,44.51
2023-09-28T11:14:57.099Z,44.49
2023-09-28T11:18:01.286Z,43.96
2023-09-28T11:21:05.689Z,44.24
2023-09-28T11:24:09.931Z,44.15
2023-09-28T11:27:15.997Z,44.13
2023-09-28T11:30:21.378Z,43.31
2023-09-28T11:33:25.137Z,42.79
2023-09-28T11:36:29.691Z,41.84
2023-09-28T11:39:34.215Z,41.49
2023-09-28T11:42:44.163Z,39.95
2023-09-28T11:45:50.462Z,40.53
2023-09-28T11:49:05.684Z,40.30
2023-09-28T11:52:09.739Z,40.30
2023-09-28T11:55:16.272Z,39.08
2023-09-28T11:58:24.890Z,38.84
2023-09-28T12:01:29.709Z,39.24
2023-09-28T12:04:33.909Z,38.83
2023-09-28T12:07:37.697Z,37.11
2023-09-28T12:10:41.509Z,34.55
2023-09-28T12:13:47.784Z,30.97
2023-09-28T12:16:53.329Z,28.67
2023-09-28T12:19:57.736Z,26.42
2023-09-28T12:23:03.781Z,25.97
2023-09-28T12:26:08.021Z,27.27
2023-09-28T12:29:13.823Z,28.08
2023-09-28T12:32:17.760Z,28.41
2023-09-28T12:35:22.648Z,28.66
2023-09-28T12:38:26.558Z,29.06
2023-09-28T12:41:31.097Z,27.39
2023-09-28T12:44:36.361Z,24.81
2023-09-28T12:47:40.475Z,21.39
2023-09-28T12:50:45.109Z,19.85
2023-09-28T12:53:48.960Z,19.18
2023-09-28T12:56:53.882Z,17.53
2023-09-28T12:59:58.997Z,17.04
2023-09-28T13:03:08.136Z,16.44
2023-09-28T13:06:12.029Z,15.51
2023-09-28T13:09:15.952Z,15.22
2023-09-28T13:12:19.799Z,15.23
2023-09-28T13:15:25.337Z,15.25
2023-09-28T13:18:30.532Z,14.32
2023-09-28T13:21:35.072Z,14.25
2023-09-28T13:24:39.144Z,13.95
2023-09-28T13:27:42.947Z,13.73
2023-09-28T13:30:48.356Z,13.55
2023-09-28T13:33:52.868Z,13.28
2023-09-28T13:36:57.469Z,13.25
2023-09-28T13:40:02.115Z,13.08
2023-09-28T13:43:07.013Z,12.49
2023-09-28T13:46:12.282Z,12.59
2023-09-28T13:49:16.488Z,12.76
2023-09-28T13:52:20.302Z,12.44
2023-09-28T13:55:24.404Z,12.51
2023-09-28T13:58:28.803Z,12.48
2023-09-28T14:01:34.115Z,12.03
2023-09-28T14:04:38.304Z,11.72
2023-09-28T14:07:42.072Z,12.32
2023-09-28T14:10:47.257Z,12.30
2023-09-28T14:13:51.278Z,12.35
2023-09-28T14:17:05.607Z,12.44
2023-09-28T14:20:16.595Z,11.79
2023-09-28T14:23:20.418Z,12.47
2023-09-28T14:26:24.362Z,12.06
2023-09-28T14:29:28.079Z,12.17
2023-09-28T14:32:33.405Z,11.97
2023-09-28T14:35:39.721Z,12.71
2023-09-28T14:38:43.414Z,12.43
2023-09-28T14:41:47.227Z,12.99
2023-09-28T14:44:53.135Z,12.61
2023-09-28T14:47:58.276Z,12.89
2023-09-28T14:51:02.160Z,12.79
2023-09-28T14:54:06.780Z,12.81
2023-09-28T14:57:11.344Z,13.29
2023-09-28T15:00:16.841Z,13.30
2023-09-28T15:03:22.950Z,13.66
2023-09-28T15:06:26.845Z,13.29
2023-09-28T15:09:30.838Z,14.07
2023-09-28T15:12:34.930Z,14.57
2023-09-28T15:15:41.100Z,14.89
2023-09-28T15:18:46.795Z,14.82
2023-09-28T15:21:50.908Z,15.10
2023-09-28T15:24:54.743Z,15.48
2023-09-28T15:27:58.583Z,15.65
2023-09-28T15:31:02.280Z,16.56
2023-09-28T15:34:07.657Z,17.21
2023-09-28T15:37:13.025Z,17.04
2023-09-28T15:40:16.913Z,16.96
2023-09-28T15:43:21.048Z,17.87
2023-09-28T15:46:24.840Z,17.99
2023-09-28T15:49:30.240Z,18.48
2023-09-28T15:52:34.345Z,19.26
2023-09-28T15:55:38.007Z,20.09
2023-09-28T15:58:41.808Z,21.25
2023-09-28T16:01:46.989Z,22.94
2023-09-28T16:04:52.170Z,24.66
2023-09-28T16:07:57.203Z,26.28
2023-09-28T16:11:01.675Z,28.29
2023-09-28T16:14:05.448Z,29.70
2023-09-28T16:17:09.996Z,30.98
2023-09-28T16:20:15.209Z,32.00
2023-09-28T16:23:19.808Z,33.17
2023-09-28T16:26:23.610Z,33.93
2023-09-28T16:29:27.789Z,35.22
2023-09-28T16:32:31.469Z,35.57
2023-09-28T16:35:36.747Z,36.74
2023-09-28T16:38:40.798Z,37.24
2023-09-28T16:41:46.241Z,37.79
2023-09-28T16:44:50.070Z,38.37
2023-09-28T16:47:54.852Z,38.97
2023-09-28T16:51:00.018Z,39.56
2023-09-28T16:54:05.259Z,40.20
2023-09-28T16:57:09.191Z,40.65
2023-09-28T17:00:14.138Z,40.86
2023-09-28T17:03:18.208Z,41.25
2023-09-28T17:06:23.452Z,41.72
2023-09-28T17:09:27.704Z,41.75
2023-09-28T17:12:43.381Z,42.44
2023-09-28T17:15:49.805Z,42.93
2023-09-28T17:18:53.943Z,43.45
2023-09-28T17:21:59.111Z,44.42
2023-09-28T17:25:03.288Z,44.44
2023-09-28T17:28:07.823Z,44.68
2023-09-28T17:31:11.834Z,45.25
2023-09-28T17:34:15.588Z,45.56
2023-09-28T17:37:21.057Z,45.92
2023-09-28T17:40:24.795Z,46.08
2023-09-28T17:43:28.741Z,46.25
2023-09-28T17:46:32.504Z,46.67
2023-09-28T17:49:36.339Z,47.12
2023-09-28T17:52:41.486Z,47.64
2023-09-28T17:55:47.110Z,47.91
2023-09-28T17:58:52.553Z,48.29
2023-09-28T18:01:57.211Z,48.49
2023-09-28T18:05:02.998Z,48.76
2023-09-28T18:08:09.018Z,49.44
2023-09-28T18:11:12.888Z,49.54
2023-09-28T18:14:17.137Z,49.99
2023-09-28T18:17:21.234Z,50.56
2023-09-28T18:20:25.315Z,50.64
2023-09-28T18:23:30.604Z,51.34
2023-09-28T18:26:34.798Z,51.20
2023-09-28T18:29:39.491Z,51.21
2023-09-28T18:32:43.277Z,51.71
2023-09-28T18:35:47.605Z,51.90
2023-09-28T18:39:07.544Z,52.52
2023-09-28T18:42:16.205Z,52.27
2023-09-28T18:45:20.041Z,52.42
2023-09-28T18:48:24.722Z,52.73
2023-09-28T18:51:28.623Z,52.77
2023-09-28T18:54:33.769Z,53.26
2023-09-28T18:57:38.002Z,53.51
2023-09-28T19:00:41.885Z,53.80
2023-09-28T19:03:45.793Z,53.70
2023-09-28T19:06:49.852Z,54.04
2023-09-28T19:09:55.548Z,54.60
2023-09-28T19:12:59.333Z,54.40
2023-09-28T19:16:06.408Z,55.34
2023-09-28T19:19:10.399Z,54.92
2023-09-28T19:22:16.915Z,55.27
2023-09-28T19:25:23.482Z,55.61
2023-09-28T19:28:28.274Z,55.79
2023-09-28T19:31:32.628Z,55.75
2023-09-28T19:34:36.238Z,56.50
2023-09-28T19:37:41.179Z,56.51
2023-09-28T19:40:46.463Z,56.89
2023-09-28T19:43:50.408Z,57.17
2023-09-28T19:46:54.335Z,57.44
2023-09-28T19:49:58.177Z,57.60
2023-09-28T19:53:02.092Z,57.81
2023-09-28T19:56:09.294Z,58.51
2023-09-28T19:59:12.978Z,58.77
2023-09-28T20:02:16.971Z,58.78
2023-09-28T20:05:20.776Z,59.21
2023-09-28T20:08:24.797Z,59.23
2023-09-28T20:11:30.037Z,59.56
2023-09-28T20:14:33.797Z,59.21
2023-09-28T20:17:38.214Z,59.81
2023-09-28T20:20:42.046Z,59.92
2023-09-28T20:23:45.696Z,60.28
2023-09-28T20:26:50.953Z,60.61
2023-09-28T20:29:55.095Z,59.99
2023-09-28T20:32:58.942Z,60.30
2023-09-28T20:36:14.036Z,61.17
2023-09-28T20:39:21.489Z,61.12
2023-09-28T20:42:31.485Z,60.98
2023-09-28T20:45:43.072Z,61.81
2023-09-28T20:48:48.417Z,61.97
2023-09-28T20:51:58.530Z,63.08
2023-09-28T20:55:06.960Z,62.59
2023-09-28T20:58:17.480Z,62.25
2023-09-28T21:01:22.712Z,62.42
2023-09-28T21:04:36.923Z,63.62
2023-09-28T21:07:46.631Z,63.03
2023-09-28T21:10:50.632Z,63.52
2023-09-28T21:13:56.205Z,63.57
2023-09-28T21:17:00.127Z,63.78
2023-09-28T21:20:04.346Z,63.69
2023-09-28T21:23:08.394Z,64.23
2023-09-28T21:26:13.241Z,64.59
2023-09-28T21:29:18.470Z,65.31
2023-09-28T21:32:22.713Z,64.85
2023-09-28T21:35:26.510Z,65.00
2023-09-28T21:38:30.360Z,65.24
2023-09-28T21:41:34.448Z,65.10
2023-09-28T21:44:39.973Z,65.47
2023-09-28T21:47:44.047Z,65.29
2023-09-28T21:50:47.885Z,65.31
2023-09-28T21:53:51.612Z,65.97
2023-09-28T21:56:55.685Z,65.91
2023-09-28T22:00:00.817Z,65.95
2023-09-28T22:03:06.655Z,65.72
2023-09-28T22:06:10.805Z,65.70
2023-09-28T22:09:15.159Z,66.14
2023-09-28T22:12:19.143Z,66.32
2023-09-28T22:15:24.898Z,67.11
2023-09-28T22:18:28.650Z,66.71
2023-09-28T22:21:32.511Z,66.63
2023-09-28T22:24:36.368Z,66.88
2023-09-28T22:27:41.008Z,67.02
2023-09-28T22:30:46.122Z,67.39
2023-09-28T22:33:50.035Z,67.29
2023-09-28T22:36:53.705Z,67.12
2023-09-28T22:40:02.832Z,67.52
2023-09-28T22:43:12.314Z,67.53
2023-09-28T22:46:17.981Z,67.75
2023-09-28T22:49:21.738Z,67.65
2023-09-28T22:52:27.226Z,68.19
2023-09-28T22:55:30.886Z,68.08
2023-09-28T22:58:34.903Z,67.99
2023-09-28T23:01:40.431Z,68.36
2023-09-28T23:04:44.175Z,68.25
2023-09-28T23:07:48.554Z,68.38
2023-09-28T23:10:55.307Z,68.72
2023-09-28T23:13:59.128Z,68.46
2023-09-28T23:17:04.284Z,68.94
2023-09-28T23:20:11.280Z,68.78
2023-09-28T23:23:17.625Z,68.91
2023-09-28T23:26:24.423Z,69.05
2023-09-28T23:29:30.028Z,69.43
2023-09-28T23:32:37.845Z,69.32
2023-09-28T23:35:42.534Z,69.31
2023-09-28T23:38:47.749Z,69.29
2023-09-28T23:41:53.622Z,69.28
2023-09-28T23:44:57.492Z,69.36
2023-09-28T23:48:05.655Z,69.73
2023-09-28T23:51:12.937Z,69.59
2023-09-28T23:54:18.259Z,69.70
2023-09-28T23:57:22.054Z,69.84
